Time;durP1;ratioP1;P1;durP2;ratioP2;P2;SDS_P1;SDS_P2;PMS_P1;PMS_P2;Temp;Humidity;BMP_temperature;BMP_pressure;BME280_temperature;BME280_humidity;BME280_pressure;Samples;Min_cycle;Max_cycle;Signal;HPM_P1;HPM_P2
2022/07/15 00:00:27;;;;;;;;;;;;;;;16.49;74.30;98512.20;1398515;83;21075;-75
2022/07/15 00:02:30;;;;;;;16.07;5.97;;;;;;;16.49;74.45;98507.34;1395909;83;67145;-75
2022/07/15 00:04:32;;;;;;;14.73;6.17;;;;;;;16.49;74.33;98505.55;1396046;83;21045;-74
2022/07/15 00:06:33;;;;;;;8.23;5.90;;;;;;;16.49;74.31;98509.55;1398810;83;21094;-75
2022/07/15 00:08:34;;;;;;;;;;;;;;;16.53;74.36;98518.60;1375693;85;81631;-75
2022/07/15 00:10:35;;;;;;;5.60;5.10;;;;;;;16.54;74.56;98529.61;1398425;83;20104;-74
2022/07/15 00:12:35;;;;;;;;;;;;;;;16.54;74.46;98538.42;1396105;84;81468;-74
2022/07/15 00:14:38;;;;;;;6.90;6.08;;;;;;;16.55;74.62;98547.28;1397176;83;20139;-74
2022/07/15 00:16:39;;;;;;;8.25;6.35;;;;;;;16.55;74.51;98551.27;1397723;83;21492;-74
2022/07/15 00:18:40;;;;;;;;;;;;;;;16.55;74.50;98541.95;1397699;83;81749;-74
2022/07/15 00:20:41;;;;;;;;;;;;;;;16.55;74.69;98540.63;1401327;83;20174;-74
2022/07/15 00:22:44;;;;;;;6.12;5.33;;;;;;;16.54;74.77;98530.94;1393714;83;67190;-73
2022/07/15 00:24:44;;;;;;;7.75;7.00;;;;;;;16.56;74.64;98532.98;1398337;83;21057;-74
2022/07/15 00:26:45;;;;;;;;;;;;;;;16.55;74.63;98527.32;1399670;83;21157;-74
2022/07/15 00:28:46;;;;;;;6.97;6.28;;;;;;;16.55;74.81;98539.30;1394472;83;67777;-74
2022/07/15 00:30:47;;;;;;;;;;;;;;;16.55;74.76;98523.33;1398130;83;21072;-74
2022/07/15 00:32:48;;;;;;;6.37;5.90;;;;;;;16.54;74.95;98537.59;1396370;83;68684;-75
2022/07/15 00:34:51;;;;;;;9.80;6.47;;;;;;;16.50;74.92;98549.81;1398455;84;21072;-74
2022/07/15 00:36:52;;;;;;;7.00;5.97;;;;;;;16.49;74.86;98546.79;1396101;83;80919;-76
2022/07/15 00:38:52;;;;;;;;;;;;;;;16.49;74.86;98544.13;1401085;83;21060;-74
2022/07/15 00:40:54;;;;;;;7.10;6.35;;;;;;;16.47;75.05;98532.75;1398923;84;20143;-75
2022/07/15 00:42:56;;;;;;;9.00;6.92;;;;;;;16.44;74.97;98528.17;1395154;84;80914;-74
2022/07/15 00:45:13;;;;;;;7.05;6.42;;;;;;;16.47;74.96;98532.75;1397024;83;21046;-75
2022/07/15 00:47:15;;;;;;;6.62;6.12;;;;;;;16.47;74.98;98527.92;1395000;85;82083;-74
2022/07/15 00:49:18;;;;;;;12.33;7.20;;;;;;;16.48;75.01;98518.98;1397507;83;21608;-75
2022/07/15 00:51:19;;;;;;;6.97;6.47;;;;;;;16.48;75.04;98527.80;1396547;83;21636;-74
2022/07/15 00:53:21;;;;;;;6.72;6.12;;;;;;;16.48;75.04;98525.14;1396778;83;81874;-75
2022/07/15 00:55:24;;;;;;;7.45;6.60;;;;;;;16.47;75.04;98521.27;1397530;85;21049;-74
2022/07/15 00:57:28;;;;;;;7.60;6.90;;;;;;;16.46;75.06;98511.12;1394273;83;81912;-74
2022/07/15 00:59:31;;;;;;;10.78;6.03;;;;;;;16.45;75.09;98501.45;1396535;83;20983;-74
2022/07/15 01:01:35;;;;;;;10.70;7.15;;;;;;;16.45;75.14;98507.27;1398972;85;20993;-74
2022/07/15 01:03:36;;;;;;;6.58;6.00;;;;;;;16.44;75.14;98513.05;1393344;83;80876;-74
2022/07/15 01:05:54;;;;;;;11.45;7.37;;;;;;;16.45;75.19;98516.08;1397694;83;21112;-74
2022/07/15 01:07:55;;;;;;;8.45;7.22;;;;;;;16.47;75.18;98517.28;1368471;85;82139;-74
2022/07/15 01:09:56;;;;;;;7.28;6.78;;;;;;;16.45;75.21;98513.42;1397119;83;21014;-74
2022/07/15 01:11:58;;;;;;;;;;;;;;;16.46;75.25;98508.47;1400230;83;81635;-74
2022/07/15 01:14:00;;;;;;;7.62;6.78;;;;;;;16.47;75.39;98507.97;1398083;85;20181;-74
2022/07/15 01:16:00;;;;;;;10.50;7.22;;;;;;;16.44;75.31;98506.40;1397747;85;21069;-73
2022/07/15 01:18:03;;;;;;;17.67;7.03;;;;;;;16.45;75.30;98510.76;1395256;83;81977;-73
2022/07/15 01:20:07;;;;;;;9.28;7.37;;;;;;;16.43;75.32;98503.37;1395196;84;21029;-74
2022/07/15 01:22:08;;;;;;;7.90;7.20;;;;;;;16.43;75.36;98502.04;1396332;83;85616;-74
2022/07/15 01:24:09;;;;;;;;;;;;;;;16.42;75.37;98503.49;1400731;83;21155;-73
2022/07/15 01:26:11;;;;;;;7.62;6.95;;;;;;;16.41;75.58;98502.66;1397724;83;20218;-73
2022/07/15 01:28:13;;;;;;;9.30;7.60;;;;;;;16.41;75.52;98516.45;1395798;83;80600;-74
2022/07/15 01:30:14;;;;;;;9.13;7.53;;;;;;;16.39;75.50;98516.55;1397065;83;21029;-74
2022/07/15 01:32:15;;;;;;;9.35;7.53;;;;;;;16.38;75.55;98518.01;1392933;84;81893;-75
2022/07/15 01:34:16;;;;;;;;;;;;;;;16.37;75.57;98515.84;1399664;83;21048;-74
2022/07/15 01:36:17;;;;;;;11.28;7.40;;;;;;;16.36;75.78;98510.16;1397600;83;20162;-74
2022/07/15 01:38:20;;;;;;;;;;;;;;;16.36;75.71;98510.65;1396006;83;80976;-74
2022/07/15 01:40:21;;;;;;;12.53;7.70;;;;;;;16.37;75.87;98512.34;1396018;85;20178;-74
2022/07/15 01:42:21;;;;;;;;;;;;;;;16.36;75.83;98511.48;1398286;83;81757;-74
2022/07/15 01:44:22;;;;;;;12.98;8.58;;;;;;;16.37;75.98;98511.02;1397779;84;20309;-74
2022/07/15 01:46:23;;;;;;;;;;;;;;;16.37;75.94;98506.53;1400792;83;21013;-74
2022/07/15 01:50:43;;;;;;;10.75;8.83;;;;;;;16.38;76.01;98500.72;1397775;83;21116;-74
2022/07/15 01:52:44;;;;;;;14.73;9.00;;;;;;;16.39;76.00;98497.93;1395894;83;81499;-74
2022/07/15 01:54:45;;;;;;;;;;;;;;;16.40;75.99;98498.80;1399981;83;21080;-74
2022/07/15 01:56:46;;;;;;;9.80;8.60;;;;;;;16.40;76.15;98501.45;1398365;84;20135;-74
2022/07/15 01:58:47;;;;;;;9.65;8.63;;;;;;;16.39;76.08;98497.93;1395319;83;81551;-74
2022/07/15 02:00:49;;;;;;;;;;;;;;;16.36;76.04;98492.87;1401060;83;21009;-74
2022/07/15 02:02:50;;;;;;;15.38;8.93;;;;;;;16.36;76.17;98504.83;1396289;83;67806;-74
2022/07/15 02:04:51;;;;;;;20.32;9.53;;;;;;;16.35;76.09;98508.45;1397742;84;21049;-73
2022/07/15 02:06:54;;;;;;;;;;;;;;;16.32;76.06;98504.72;1399672;83;21108;-73
2022/07/15 02:08:56;;;;;;;9.68;8.73;;;;;;;16.32;76.15;98506.05;1397916;83;20122;-74
2022/07/15 02:10:57;;;;;;;13.43;9.45;;;;;;;16.26;76.12;98500.73;1396156;84;21028;-74
2022/07/15 02:12:58;;;;;;;11.60;10.23;;;;;;;16.27;76.13;98501.56;1395120;83;80913;-74
2022/07/15 02:14:59;;;;;;;;;;;;;;;16.26;76.13;98505.22;1399909;83;21037;-74
2022/07/15 02:17:01;;;;;;;10.98;9.88;;;;;;;16.22;76.27;98507.76;1396376;83;67987;-74
2022/07/15 02:19:02;;;;;;;14.50;10.00;;;;;;;16.17;76.24;98506.77;1385228;83;21097;-73
2022/07/15 02:21:04;;;;;;;18.32;9.73;;;;;;;16.17;76.24;98506.77;1401625;83;21486;-74
2022/07/15 02:23:07;;;;;;;14.85;9.48;;;;;;;16.04;76.28;98497.59;1399688;83;81677;-74
2022/07/15 02:25:10;;;;;;;16.17;9.60;;;;;;;16.04;76.28;98497.59;1402067;83;21702;-74
2022/07/15 02:27:11;;;;;;;15.40;9.03;;;;;;;16.11;76.30;98511.26;1401760;83;81674;-73
2022/07/15 02:29:12;;;;;;;10.32;8.88;;;;;;;16.08;76.30;98511.50;1357052;86;21035;-74
2022/07/15 02:31:13;;;;;;;14.78;8.13;;;;;;;16.06;76.31;98512.96;1402403;83;21045;-73
2022/07/15 02:33:14;;;;;;;12.73;8.25;;;;;;;16.02;76.33;98507.52;1398938;83;82131;-74
2022/07/15 02:35:16;;;;;;;12.15;7.67;;;;;;;15.91;76.34;98498.19;1387149;84;21550;-74
2022/07/15 02:37:17;;;;;;;11.40;8.30;;;;;;;15.95;76.36;98523.56;1362784;85;81593;-74
2022/07/15 02:39:18;;;;;;;15.15;8.68;;;;;;;15.95;76.36;98523.56;1402284;83;21052;-74
2022/07/15 02:41:19;;;;;;;;;;;;;;;15.92;76.44;98521.14;1404041;83;21075;-74
2022/07/15 02:43:21;;;;;;;14.63;7.70;;;;;;;15.89;76.58;98522.72;1398235;83;67999;-74
2022/07/15 02:45:25;;;;;;;10.15;9.10;;;;;;;15.86;76.54;98525.13;1400690;83;21948;-74
2022/07/15 02:47:26;;;;;;;10.45;9.05;;;;;;;15.81;76.60;98526.83;1399109;83;81012;-74
2022/07/15 02:49:27;;;;;;;11.20;10.08;;;;;;;15.81;76.60;98526.83;1403057;83;21052;-75
2022/07/15 02:51:28;;;;;;;16.27;10.63;;;;;;;15.81;76.71;98527.28;1402977;83;21434;-74
2022/07/15 02:53:30;;;;;;;16.55;10.53;;;;;;;15.80;76.72;98527.78;1399400;84;81886;-74
2022/07/15 02:55:30;;;;;;;;;;;;;;;15.78;76.77;98528.36;1405065;83;21041;-74
2022/07/15 02:57:32;;;;;;;14.68;10.15;;;;;;;15.77;76.97;98531.11;1399163;84;68333;-75
2022/07/15 02:59:34;;;;;;;;;;;;;;;15.75;77.00;98525.08;1404410;83;21105;-75
2022/07/15 03:01:35;;;;;;;15.80;10.45;;;;;;;15.75;77.19;98534.38;1403072;83;20163;-74
2022/07/15 03:03:36;;;;;;;13.00;10.28;;;;;;;15.75;77.19;98534.38;1400260;83;81913;-74
2022/07/15 03:05:37;;;;;;;14.15;11.50;;;;;;;15.75;77.18;98535.22;1379678;84;21118;-75
2022/07/15 03:07:38;;;;;;;;;;;;;;;15.76;77.26;98540.07;1381672;84;81895;-74
2022/07/15 03:09:39;;;;;;;;;;;;;;;15.76;77.43;98536.92;1384519;84;20125;-75
2022/07/15 03:11:40;;;;;;;13.55;11.38;;;;;;;15.75;77.48;98541.86;1403554;83;20241;-75
2022/07/15 03:13:41;;;;;;;;;;;;;;;15.76;77.49;98544.05;1403848;83;81241;-75
2022/07/15 03:15:42;;;;;;;15.28;11.43;;;;;;;15.77;77.68;98547.05;1402798;83;20162;-74
2022/07/15 03:17:42;;;;;;;;;;;;;;;15.76;77.75;98547.55;1401084;83;81090;-75
2022/07/15 03:19:43;;;;;;;13.93;12.58;;;;;;;15.77;77.75;98553.23;1397220;83;20131;-74
2022/07/15 03:21:45;;;;;;;20.68;13.60;;;;;;;15.78;77.70;98557.59;1393878;83;21132;-76
2022/07/15 03:23:46;;;;;;;22.27;14.15;;;;;;;15.78;77.79;98560.25;1393017;83;81794;-75
2022/07/15 03:25:48;;;;;;;22.60;14.15;;;;;;;15.74;77.75;98554.80;1395016;84;21072;-74
2022/07/15 03:27:49;;;;;;;;;;;;;;;15.78;77.77;98564.23;1395167;83;82004;-74
2022/07/15 03:29:50;;;;;;;21.15;14.35;;;;;;;15.77;77.90;98563.86;1394017;84;20137;-74
2022/07/15 03:31:52;;;;;;;20.97;14.58;;;;;;;15.76;77.70;98561.33;1395625;84;21520;-75
2022/07/15 03:33:55;;;;;;;18.02;14.98;;;;;;;15.76;77.70;98561.33;1393624;84;81465;-75
2022/07/15 03:35:56;;;;;;;17.05;14.83;;;;;;;15.71;77.87;98555.02;1394300;84;21005;-76
2022/07/15 03:37:56;;;;;;;;;;;;;;;15.71;77.87;98555.02;1396156;84;81813;-75
2022/07/15 03:39:58;;;;;;;;;;;;;;;15.75;77.96;98569.77;1398230;83;20490;-76
2022/07/15 03:41:59;;;;;;;16.85;15.18;;;;;;;15.74;78.15;98570.75;1392183;83;67265;-75
2022/07/15 03:44:03;;;;;;;27.62;16.45;;;;;;;15.72;77.94;98574.48;1396871;84;21041;-75
2022/07/15 03:46:04;;;;;;;22.37;16.97;;;;;;;15.72;78.11;98585.95;1393192;83;21060;-75
2022/07/15 03:48:05;;;;;;;23.80;17.67;;;;;;;15.72;78.11;98585.95;1394102;83;81814;-75
2022/07/15 03:50:08;;;;;;;23.25;16.45;;;;;;;15.72;78.04;98588.60;1395280;85;20997;-75
2022/07/15 03:52:10;;;;;;;22.93;17.35;;;;;;;15.72;78.09;98588.60;1390158;83;81953;-75
2022/07/15 03:54:11;;;;;;;;;;;;;;;15.76;78.16;98593.22;1400364;83;21513;-75
2022/07/15 03:56:12;;;;;;;23.92;19.00;;;;;;;15.76;78.24;98591.39;1395402;85;20139;-75
2022/07/15 03:58:13;;;;;;;23.35;18.73;;;;;;;15.77;78.15;98601.06;1369374;85;81112;-75
2022/07/15 04:00:14;;;;;;;;;;;;;;;15.80;78.15;98599.53;1398063;84;21615;-75
2022/07/15 04:02:15;;;;;;;25.12;20.70;;;;;;;15.81;78.16;98603.89;1391829;85;67330;-75
2022/07/15 04:04:16;;;;;;;25.72;21.93;;;;;;;15.82;78.15;98598.95;1395379;83;21029;-76
2022/07/15 04:06:20;;;;;;;30.23;21.17;;;;;;;15.85;78.04;98600.98;1394891;84;22366;-75
2022/07/15 04:08:21;;;;;;;29.25;22.22;;;;;;;15.88;78.01;98594.97;1393617;85;82352;-75
2022/07/15 04:10:22;;;;;;;;;;;;;;;15.89;78.00;98599.80;1397886;84;21633;-75
2022/07/15 04:12:23;;;;;;;27.32;21.90;;;;;;;15.92;78.04;98598.22;1394569;84;67175;-75
2022/07/15 04:14:25;;;;;;;;;;;;;;;15.93;77.95;98590.13;1399453;85;21009;-75
2022/07/15 04:16:28;;;;;;;29.12;21.85;;;;;;;15.95;78.02;98594.00;1395011;85;20119;-75
2022/07/15 04:18:29;;;;;;;28.25;22.70;;;;;;;15.96;77.86;98591.71;1392824;83;81169;-74
2022/07/15 04:20:30;;;;;;;;;;;;;;;15.98;77.91;98596.44;1398708;83;21540;-75
2022/07/15 04:22:43;;;;;;;28.80;23.10;;;;;;;16.01;78.00;98597.53;1394562;83;67848;-75
2022/07/15 04:24:45;;;;;;;31.82;23.20;;;;;;;16.05;77.93;98604.30;1396782;83;21108;-74
2022/07/15 04:26:46;;;;;;;;;;;;;;;16.05;77.93;98604.30;1400079;84;21107;-74
2022/07/15 04:28:47;;;;;;;28.20;23.27;;;;;;;16.07;77.98;98624.95;1373604;85;67847;-75
2022/07/15 04:30:49;;;;;;;31.50;22.85;;;;;;;16.10;77.93;98633.19;1395667;85;21479;-75
2022/07/15 04:32:50;;;;;;;29.45;23.92;;;;;;;16.11;77.89;98636.22;1363010;85;82001;-74
2022/07/15 04:34:51;;;;;;;33.58;23.98;;;;;;;16.11;77.94;98659.65;1398103;83;20978;-75
2022/07/15 04:36:52;;;;;;;;;;;;;;;16.12;77.81;98652.05;1351876;86;22374;-75
2022/07/15 04:38:53;;;;;;;22.80;18.05;;;;;;;16.08;77.84;98663.88;1397664;83;67061;-75
2022/07/15 04:40:54;;;;;;;;;;;;;;;16.06;77.67;98659.17;1405169;83;21072;-78
2022/07/15 04:42:57;;;;;;;27.30;17.67;;;;;;;16.04;77.58;98666.41;1398980;83;67900;-75
2022/07/15 04:44:58;;;;;;;20.45;18.30;;;;;;;16.01;77.46;98658.67;1402599;83;21064;-75
2022/07/15 04:46:58;;;;;;;;;;;;;;;16.00;77.42;98672.91;1402537;83;81210;-75
2022/07/15 04:51:19;;;;;;;20.25;17.12;;;;;;;15.99;77.48;98677.86;1401057;83;21092;-75
2022/07/15 04:53:21;;;;;;;22.62;18.17;;;;;;;15.97;77.43;98681.97;1397801;84;81807;-75
2022/07/15 04:55:22;;;;;;;34.40;18.40;;;;;;;15.99;77.43;98684.50;1401170;83;21033;-76
2022/07/15 04:57:23;;;;;;;22.58;16.82;;;;;;;16.01;77.45;98695.89;1400217;83;81828;-74
2022/07/15 04:59:26;;;;;;;;;;;;;;;16.03;77.48;98697.93;1405540;83;21097;-75
2022/07/15 05:01:27;;;;;;;27.50;16.23;;;;;;;16.06;77.49;98704.83;1402280;83;20162;-76
2022/07/15 05:03:28;;;;;;;;;;;;;;;16.08;77.49;98702.43;1402248;83;81950;-76
2022/07/15 05:05:29;;;;;;;19.52;12.65;;;;;;;16.11;77.54;98710.66;1402244;83;20250;-75
2022/07/15 05:07:30;;;;;;;17.48;9.75;;;;;;;16.12;77.31;98707.88;1399505;83;81068;-75
2022/07/15 05:09:31;;;;;;;11.00;9.33;;;;;;;16.08;77.28;98701.09;1402142;83;21060;-76
2022/07/15 05:11:32;;;;;;;14.28;8.50;;;;;;;16.10;76.94;98709.83;1403120;83;21020;-75
2022/07/15 05:13:35;;;;;;;;;;;;;;;16.14;76.79;98716.61;1401843;83;80925;-75
2022/07/15 05:15:36;;;;;;;7.92;6.47;;;;;;;16.15;76.64;98718.28;1401606;83;20178;-76
2022/07/15 05:17:40;;;;;;;10.90;7.40;;;;;;;16.14;76.53;98712.62;1362056;85;82144;-75
2022/07/15 05:19:42;;;;;;;14.73;6.90;;;;;;;16.15;76.42;98723.59;1397678;83;21573;-75
2022/07/15 05:21:42;;;;;;;14.87;6.80;;;;;;;16.16;76.31;98719.98;1396024;83;21005;-75
2022/07/15 05:23:43;;;;;;;;;;;;;;;16.18;76.23;98725.18;1362520;85;82105;-76
2022/07/15 05:25:45;;;;;;;9.60;6.12;;;;;;;16.21;76.15;98727.59;1393401;83;20282;-76
2022/07/15 05:27:47;;;;;;;10.35;6.17;;;;;;;16.23;76.07;98731.00;1392266;83;81402;-76
2022/07/15 05:29:48;;;;;;;7.17;5.60;;;;;;;16.25;76.02;98730.39;1394482;83;21095;-76
2022/07/15 05:31:49;;;;;;;;;;;;;;;16.28;75.80;98741.28;1398380;83;21599;-76
2022/07/15 05:33:52;;;;;;;8.70;5.50;;;;;;;16.32;75.69;98744.08;1389397;83;68147;-76
2022/07/15 05:35:53;;;;;;;10.50;5.10;;;;;;;16.35;75.57;98746.50;1373902;85;21832;-76
2022/07/15 05:37:54;;;;;;;13.62;4.87;;;;;;;16.39;75.50;98753.78;1394358;83;81675;-76
2022/07/15 05:39:54;;;;;;;;;;;;;;;16.43;75.47;98753.42;1395704;83;21033;-76
2022/07/15 05:41:55;;;;;;;5.50;4.33;;;;;;;16.47;75.16;98749.56;1368562;85;67302;-78
2022/07/15 05:43:56;;;;;;;;;;;;;;;16.51;75.10;98748.36;1398038;85;21029;-75
2022/07/15 05:45:57;;;;;;;9.48;3.87;;;;;;;16.56;74.92;98753.81;1396229;83;20143;-75
2022/07/15 05:47:58;;;;;;;;;;;;;;;16.61;74.80;98766.29;1370268;85;81582;-76
2022/07/15 05:49:59;;;;;;;12.43;3.45;;;;;;;16.63;74.66;98761.22;1393177;85;20256;-76
2022/07/15 05:52:01;;;;;;;5.17;3.75;;;;;;;16.67;74.48;98760.52;1392530;83;82155;-75
2022/07/15 05:54:02;;;;;;;7.78;3.75;;;;;;;16.73;74.46;98761.85;1369909;85;22197;-76
2022/07/15 05:56:04;;;;;;;5.83;3.55;;;;;;;16.78;74.38;98764.52;1395368;83;21069;-76
2022/07/15 05:58:07;;;;;;;10.38;3.33;;;;;;;16.85;73.97;98765.73;1392267;83;81214;-77
2022/07/15 06:00:10;;;;;;;8.10;3.15;;;;;;;16.90;73.86;98780.03;1394728;85;21057;-76
2022/07/15 06:02:13;;;;;;;7.90;2.77;;;;;;;16.95;73.77;98778.37;1393175;84;81450;-75
2022/07/15 06:04:14;;;;;;;9.45;2.98;;;;;;;16.99;73.03;98778.49;1394306;83;21029;-74
2022/07/15 06:06:16;;;;;;;4.50;2.92;;;;;;;17.03;73.04;98782.61;1395059;83;21037;-76
2022/07/15 06:08:17;;;;;;;6.65;2.40;;;;;;;17.09;72.95;98784.78;1396567;83;81458;-75
2022/07/15 06:10:21;;;;;;;9.63;2.10;;;;;;;17.14;72.67;98795.06;1396936;83;21053;-75
2022/07/15 06:12:22;;;;;;;11.33;2.47;;;;;;;17.18;72.54;98796.05;1393347;83;81402;-75
2022/07/15 06:14:23;;;;;;;9.95;1.95;;;;;;;17.26;72.30;98797.26;1398044;85;21044;-76
2022/07/15 06:16:24;;;;;;;;;;;;;;;17.30;72.10;98800.05;1397257;83;21036;-75
2022/07/15 06:18:25;;;;;;;10.43;2.25;;;;;;;17.35;71.71;98801.87;1394827;83;68575;-75
2022/07/15 06:20:27;;;;;;;4.90;2.00;;;;;;;17.39;71.55;98801.98;1403183;83;21032;-75
2022/07/15 06:22:28;;;;;;;4.80;2.15;;;;;;;17.44;71.49;98799.78;1404244;82;81648;-75
2022/07/15 06:24:30;;;;;;;2.27;1.37;;;;;;;17.50;71.19;98809.10;1406070;83;21012;-75
2022/07/15 06:26:31;;;;;;;3.62;2.10;;;;;;;17.55;70.91;98814.09;1407511;83;21112;-75
2022/07/15 06:28:32;;;;;;;6.53;2.00;;;;;;;17.61;70.53;98813.12;1403564;83;81888;-75
2022/07/15 06:30:34;;;;;;;3.98;1.45;;;;;;;17.67;70.79;98810.44;1405518;83;21040;-75
2022/07/15 06:32:36;;;;;;;11.38;1.47;;;;;;;17.71;70.14;98818.55;1404146;83;81839;-75
2022/07/15 06:34:37;;;;;;;7.65;1.47;;;;;;;17.75;70.53;98813.34;1405688;83;21116;-75
2022/07/15 06:36:38;;;;;;;7.05;1.42;;;;;;;17.78;70.05;98818.41;1405341;83;21076;-77
2022/07/15 06:38:39;;;;;;;6.78;1.42;;;;;;;17.83;69.29;98819.37;1378764;84;80661;-77
2022/07/15 06:40:40;;;;;;;4.65;1.65;;;;;;;17.86;68.57;98819.98;1391827;84;21079;-76
2022/07/15 06:42:41;;;;;;;1.37;1.02;;;;;;;17.93;68.52;98825.70;1388186;84;80772;-75
2022/07/15 06:44:43;;;;;;;5.75;1.37;;;;;;;17.97;68.57;98819.61;1385013;84;21062;-76
2022/07/15 06:46:44;;;;;;;4.75;1.90;;;;;;;18.03;68.26;98827.13;1401056;83;21009;-76
2022/07/15 06:48:45;;;;;;;6.15;1.50;;;;;;;18.08;68.80;98828.91;1398978;83;81214;-76
2022/07/15 06:50:46;;;;;;;10.13;1.42;;;;;;;18.12;68.46;98834.85;1401269;83;21104;-75
2022/07/15 06:52:47;;;;;;;2.17;1.30;;;;;;;18.15;68.35;98830.59;1399381;83;81741;-77
2022/07/15 06:54:48;;;;;;;1.70;1.20;;;;;;;18.17;68.04;98835.33;1402700;83;21048;-76
2022/07/15 06:56:49;;;;;;;8.60;1.45;;;;;;;18.21;67.99;98837.61;1402914;83;21067;-76
2022/07/15 06:58:50;;;;;;;6.47;1.27;;;;;;;18.29;67.75;98836.13;1400142;83;81421;-76
2022/07/15 07:00:51;;;;;;;4.25;1.30;;;;;;;18.33;67.15;98840.23;1403064;83;22261;-76
2022/07/15 07:02:52;;;;;;;3.08;1.40;;;;;;;18.36;66.89;98841.34;1399636;83;80726;-77
2022/07/15 07:04:53;;;;;;;3.90;1.50;;;;;;;18.37;67.17;98843.88;1400554;83;21563;-77
2022/07/15 07:06:54;;;;;;;9.45;1.10;;;;;;;18.44;66.72;98848.69;1402001;83;21083;-76
2022/07/15 07:08:56;;;;;;;3.87;1.57;;;;;;;18.49;66.75;98855.84;1403716;83;81529;-75
2022/07/15 07:10:57;;;;;;;2.58;1.30;;;;;;;18.53;67.04;98851.44;1399823;83;21037;-74
2022/07/15 07:12:58;;;;;;;5.05;1.10;;;;;;;18.58;66.34;98852.88;1398916;83;82027;-76
2022/07/15 07:15:01;;;;;;;4.17;1.10;;;;;;;18.60;65.23;98854.95;1403323;83;21115;-76
2022/07/15 07:17:02;;;;;;;7.58;1.30;;;;;;;18.62;65.19;98854.31;1395396;83;81002;-76
2022/07/15 07:19:03;;;;;;;3.52;1.27;;;;;;;18.64;65.11;98856.38;1404029;83;21607;-77
2022/07/15 07:21:05;;;;;;;2.95;1.12;;;;;;;18.67;64.81;98860.13;1388977;83;21093;-76
2022/07/15 07:23:06;;;;;;;3.58;1.40;;;;;;;18.70;65.05;98857.19;1383346;84;80615;-77
2022/07/15 07:25:07;;;;;;;4.22;1.47;;;;;;;18.72;65.04;98853.92;1385019;84;21093;-77
2022/07/15 07:27:12;;;;;;;4.33;1.82;;;;;;;18.75;64.73;98859.00;1381669;84;80856;-77
2022/07/15 07:29:22;;;;;;;3.90;1.60;;;;;;;18.74;63.53;98851.12;1386343;85;21134;-79
2022/07/15 07:31:18;;;;;;;3.85;1.62;;;;;;;18.83;64.17;98867.67;1386911;84;21021;-79
2022/07/15 07:33:19;;;;;;;7.67;1.27;;;;;;;18.86;63.87;98863.44;1383455;84;81468;-77
2022/07/15 07:35:20;;;;;;;5.70;1.65;;;;;;;18.92;63.77;98866.11;1386799;84;21081;-78
2022/07/15 07:37:22;;;;;;;5.40;1.32;;;;;;;18.99;63.77;98872.11;1385131;84;81752;-77
2022/07/15 07:39:23;;;;;;;8.30;1.60;;;;;;;19.03;63.81;98874.05;1384632;84;21636;-77
2022/07/15 07:41:24;;;;;;;2.40;1.40;;;;;;;19.04;64.02;98870.41;1385835;84;20986;-77
2022/07/15 07:43:25;;;;;;;5.65;1.30;;;;;;;19.04;63.91;98875.25;1383912;84;80774;-77
2022/07/15 07:45:28;;;;;;;8.13;1.50;;;;;;;19.11;63.60;98884.09;1385739;84;21636;-76
2022/07/15 07:47:40;;;;;;;1.77;1.17;;;;;;;19.13;62.89;98888.80;1380978;85;81475;-77
2022/07/15 07:49:41;;;;;;;7.10;1.57;;;;;;;19.07;62.79;98876.81;1382650;84;21603;-77
2022/07/15 07:51:43;;;;;;;3.42;1.92;;;;;;;19.14;63.30;98881.98;1387174;84;21078;-77
2022/07/15 07:53:46;;;;;;;1.60;1.40;;;;;;;19.15;63.13;98886.83;1384231;85;80727;-77
2022/07/15 07:55:47;;;;;;;3.25;1.67;;;;;;;19.12;62.09;98890.64;1384331;84;21039;-77
2022/07/15 07:57:54;;;;;;;3.12;1.90;;;;;;;19.12;62.35;98889.30;1382638;84;81614;-77
2022/07/15 07:59:55;;;;;;;4.97;1.70;;;;;;;19.14;62.83;98891.34;1382712;85;21038;-76
2022/07/15 08:01:56;;;;;;;10.85;2.52;;;;;;;19.16;62.62;98892.07;1364330;85;80827;-77
2022/07/15 08:03:58;;;;;;;14.83;2.65;;;;;;;19.18;62.73;98893.27;1361693;85;21558;-76
2022/07/15 08:06:00;;;;;;;5.90;2.35;;;;;;;18.93;62.77;98843.73;1362938;85;21012;-77
2022/07/15 08:08:15;;;;;;;8.88;2.33;;;;;;;19.34;62.71;98896.33;1348342;85;81783;-77
2022/07/15 08:10:21;;;;;;;6.72;2.15;;;;;;;19.32;62.35;98896.09;1385401;84;21097;-78
2022/07/15 08:12:22;;;;;;;6.00;1.90;;;;;;;19.31;62.77;98901.08;1382000;84;81412;-77
2022/07/15 08:14:24;;;;;;;7.70;1.85;;;;;;;19.32;62.72;98900.94;1385117;84;21960;-77
2022/07/15 08:16:25;;;;;;;5.90;1.50;;;;;;;19.38;62.42;98903.58;1393533;84;21073;-76
2022/07/15 08:18:27;;;;;;;8.00;1.87;;;;;;;19.44;61.98;98899.05;1391568;84;81392;-78
2022/07/15 08:20:31;;;;;;;5.60;1.80;;;;;;;19.48;61.93;98898.28;1397332;83;21026;-76
2022/07/15 08:22:33;;;;;;;19.98;2.20;;;;;;;19.46;61.73;98901.09;1395018;83;80721;-78
2022/07/15 08:24:36;;;;;;;8.05;2.08;;;;;;;19.45;62.08;98906.07;1397085;84;21033;-78
2022/07/15 08:26:39;;;;;;;2.58;1.70;;;;;;;19.42;61.41;98906.34;1396299;83;21059;-77
2022/07/15 08:28:41;;;;;;;2.98;1.62;;;;;;;19.43;61.28;98919.23;1393537;83;81607;-77
2022/07/15 08:30:44;;;;;;;3.92;1.70;;;;;;;19.44;60.78;98912.41;1397456;83;21017;-77
2022/07/15 08:32:47;;;;;;;15.35;2.00;;;;;;;19.48;60.80;98913.84;1393349;83;80641;-77
2022/07/15 08:34:48;;;;;;;9.93;1.95;;;;;;;19.57;61.00;98914.37;1396624;83;21063;-78
2022/07/15 08:36:49;;;;;;;5.85;1.65;;;;;;;19.63;60.29;98912.15;1397515;84;21037;-77
2022/07/15 08:38:50;;;;;;;2.92;1.65;;;;;;;19.61;60.46;98912.78;1396585;83;81262;-76
2022/07/15 08:41:00;;;;;;;5.65;1.47;;;;;;;19.62;60.79;98910.45;1396127;83;21096;-78
2022/07/15 08:43:01;;;;;;;5.70;1.45;;;;;;;19.70;60.24;98910.63;1394296;83;81978;-76
2022/07/15 08:45:04;;;;;;;4.00;1.40;;;;;;;19.78;60.51;98916.16;1374334;85;21095;-79
2022/07/15 08:47:06;;;;;;;7.40;1.87;;;;;;;19.95;59.57;98917.88;1396325;83;81649;-78
2022/07/15 08:49:15;;;;;;;3.80;1.47;;;;;;;20.02;59.74;98913.66;1398078;83;21142;-78
2022/07/15 08:51:13;;;;;;;8.55;1.37;;;;;;;20.13;60.21;98917.59;1394755;83;21013;-77
2022/07/15 08:53:14;;;;;;;6.58;1.65;;;;;;;20.31;60.39;98915.58;1392881;83;80758;-77
2022/07/15 08:55:16;;;;;;;9.20;1.92;;;;;;;20.44;59.52;98918.84;1397081;83;21132;-77
2022/07/15 08:57:17;;;;;;;4.08;1.75;;;;;;;20.51;59.21;98917.30;1393971;84;81007;-77
2022/07/15 08:59:18;;;;;;;2.45;1.70;;;;;;;20.58;59.05;98918.94;1373348;85;21079;-78
2022/07/15 09:01:21;;;;;;;4.47;1.77;;;;;;;20.65;59.17;98924.08;1397259;83;21069;-81
2022/07/15 09:03:23;;;;;;;5.83;1.70;;;;;;;20.70;59.69;98925.02;1393948;84;81646;-77
2022/07/15 09:05:35;;;;;;;5.58;1.98;;;;;;;20.80;59.88;98924.55;1391971;83;21376;-78
2022/07/15 09:08:00;;;;;;;3.55;1.67;;;;;;;20.93;59.31;98925.59;1384476;83;81495;-77
2022/07/15 09:10:01;;;;;;;10.05;2.27;;;;;;;20.96;59.16;98923.97;1385744;83;21551;-78
2022/07/15 09:12:07;;;;;;;4.45;1.82;;;;;;;20.95;58.92;98930.80;1394093;84;81915;-78
2022/07/15 09:14:13;;;;;;;11.35;1.80;;;;;;;21.02;58.83;98922.08;1399728;83;21024;-79
2022/07/15 09:16:21;;;;;;;8.90;1.90;;;;;;;21.16;58.74;98934.19;1396503;83;21030;-79
2022/07/15 09:18:28;;;;;;;11.20;2.25;;;;;;;21.06;57.88;98930.19;1389990;83;81453;-80
2022/07/15 09:20:29;;;;;;;9.10;2.30;;;;;;;20.96;58.49;98936.53;1372538;85;21095;-78
2022/07/15 09:22:35;;;;;;;4.15;2.30;;;;;;;20.96;58.63;98932.51;1400043;83;80679;-79
2022/07/15 09:24:36;;;;;;;5.75;2.05;;;;;;;21.04;58.44;98929.97;1398795;83;21027;-78
2022/07/15 09:26:37;;;;;;;2.22;1.60;;;;;;;21.13;58.29;98930.46;1370085;85;21541;-78
2022/07/15 09:28:40;;;;;;;3.08;1.52;;;;;;;21.13;57.85;98935.82;1400967;83;80888;-79
2022/07/15 09:37:59;;;;;;;2.22;1.70;;;;;;;21.39;58.21;98930.70;1400229;83;81747;-79
2022/07/15 09:40:00;;;;;;;8.40;2.05;;;;;;;21.02;56.48;98880.53;1400258;83;21032;-76
2022/07/15 09:42:07;;;;;;;10.25;1.70;;;;;;;21.16;56.28;98940.89;1399023;83;81863;-78
2022/07/15 09:44:13;;;;;;;4.10;1.27;;;;;;;21.00;57.04;98945.47;1400803;83;21449;-78
2022/07/15 09:46:14;;;;;;;11.45;1.72;;;;;;;21.00;57.05;98933.41;1378793;84;21848;-80
2022/07/15 09:48:15;;;;;;;3.08;1.50;;;;;;;21.07;56.14;98931.02;1377142;84;31843;-77
2022/07/15 09:50:33;;;;;;;2.90;1.15;;;;;;;21.07;56.64;98932.36;1399532;83;81798;-77